Time;durP1;ratioP1;P1;durP2;ratioP2;P2;SDS_P1;SDS_P2;PMS_P1;PMS_P2;Temp;Humidity;BMP_temperature;BMP_pressure;BME280_temperature;BME280_humidity;BME280_pressure;Samples;Min_cycle;Max_cycle;Signal;HPM_P1;HPM_P2
2022/04/28 00:01:00;;;;;;;19.40;14.98;;;;;;;7.61;100.00;97145.38;5128067;27;20541;-56
2022/04/28 00:03:29;;;;;;;20.15;14.68;;;;;;;7.58;100.00;97146.44;5128981;27;20061;-54
2022/04/28 00:05:59;;;;;;;21.60;15.50;;;;;;;7.83;100.00;97144.69;5128777;27;20082;-54
2022/04/28 00:08:27;;;;;;;20.10;15.30;;;;;;;7.77;100.00;97135.44;5124394;27;20886;-58
2022/04/28 00:10:55;;;;;;;23.20;16.70;;;;;;;7.81;100.00;97142.19;5127655;27;20059;-54
2022/04/28 00:13:23;;;;;;;19.63;15.10;;;;;;;7.66;100.00;97145.88;5124512;27;20073;-56
2022/04/28 00:15:52;;;;;;;21.85;15.95;;;;;;;7.38;100.00;97144.38;5125134;27;20074;-53
2022/04/28 00:18:20;;;;;;;22.38;16.00;;;;;;;7.25;100.00;97135.69;5124390;27;20074;-55
2022/04/28 00:20:48;;;;;;;24.05;16.75;;;;;;;7.37;100.00;97138.31;5127938;27;20070;-53
2022/04/28 00:23:18;;;;;;;24.42;17.92;;;;;;;7.53;100.00;97150.31;5125358;27;20063;-55
2022/04/28 00:25:46;;;;;;;21.83;16.70;;;;;;;7.48;100.00;97149.81;5128558;27;20067;-49
2022/04/28 00:28:20;;;;;;;19.70;15.23;;;;;;;7.53;100.00;97145.06;5124082;27;20059;-52
2022/04/28 00:30:48;;;;;;;22.55;16.23;;;;;;;7.27;100.00;97144.31;5126071;27;20066;-53
2022/04/28 00:33:17;;;;;;;22.02;16.42;;;;;;;7.42;100.00;97139.75;5125988;27;20083;-52
2022/04/28 00:35:45;;;;;;;24.63;16.90;;;;;;;7.42;100.00;97143.22;5127879;27;20093;-53
2022/04/28 00:38:14;;;;;;;24.55;18.52;;;;;;;7.40;100.00;97141.63;5126882;27;20445;-54
2022/04/28 00:40:44;;;;;;;25.40;18.08;;;;;;;7.25;100.00;97151.44;5128020;27;20450;-55
2022/04/28 00:43:26;;;;;;;23.35;18.15;;;;;;;7.39;100.00;97143.44;5127500;27;20123;-56
2022/04/28 00:45:54;;;;;;;23.00;16.00;;;;;;;7.46;100.00;97149.91;5122953;27;20065;-53
2022/04/28 00:51:09;;;;;;;19.35;14.32;;;;;;;7.20;100.00;97136.03;5123707;27;20494;-55
2022/04/28 00:53:42;;;;;;;18.23;14.73;;;;;;;7.20;100.00;97133.41;5127053;27;20082;-56
2022/04/28 00:56:13;;;;;;;17.75;14.30;;;;;;;7.11;100.00;97128.78;5126559;27;20062;-50
2022/04/28 00:58:42;;;;;;;18.02;14.27;;;;;;;7.08;100.00;97136.88;5122839;27;20058;-53
2022/04/28 01:01:10;;;;;;;17.95;13.68;;;;;;;6.96;100.00;97130.69;5126991;27;20074;-55
2022/04/28 01:03:38;;;;;;;17.42;13.98;;;;;;;6.96;100.00;97138.56;5130696;27;20069;-55
2022/04/28 01:06:07;;;;;;;19.77;14.02;;;;;;;6.84;100.00;97132.34;5125900;27;20560;-53
2022/04/28 01:08:35;;;;;;;20.73;15.85;;;;;;;6.98;100.00;97120.09;5127600;27;20071;-54
2022/04/28 01:11:04;;;;;;;17.92;13.93;;;;;;;6.95;100.00;97125.53;5122184;27;20475;-57
2022/04/28 01:13:35;;;;;;;18.45;14.45;;;;;;;6.80;100.00;97123.03;5112000;27;20078;-58
2022/04/28 01:16:03;;;;;;;24.23;17.95;;;;;;;6.88;100.00;97125.13;5115035;27;20078;-54
2022/04/28 01:18:32;;;;;;;25.33;18.83;;;;;;;6.89;100.00;97122.41;5127008;27;20338;-54
2022/04/28 01:21:04;;;;;;;28.90;20.55;;;;;;;6.84;100.00;97131.53;5118936;27;20079;-59
2022/04/28 01:23:33;;;;;;;28.05;19.55;;;;;;;6.89;100.00;97126.81;5126492;27;20086;-56
2022/04/28 01:26:01;;;;;;;49.03;13.98;;;;;;;6.95;100.00;97128.16;5109125;27;20071;-53
2022/04/28 01:28:31;;;;;;;24.10;17.77;;;;;;;6.92;100.00;97125.75;5112891;27;20067;-53
2022/04/28 01:31:00;;;;;;;24.13;17.92;;;;;;;6.88;100.00;97127.75;5126858;27;20073;-55
2022/04/28 01:33:30;;;;;;;23.75;18.13;;;;;;;6.95;100.00;97125.53;5121754;27;20060;-55
2022/04/28 01:35:58;;;;;;;20.27;15.43;;;;;;;6.77;100.00;97138.13;5107458;28;20087;-55
2022/04/28 01:38:28;;;;;;;24.55;18.20;;;;;;;6.65;100.00;97137.19;5104537;28;20043;-53
2022/04/28 01:40:57;;;;;;;25.75;17.75;;;;;;;6.50;100.00;97133.81;5121780;27;20035;-56
2022/04/28 01:43:25;;;;;;;27.55;19.38;;;;;;;6.54;100.00;97129.22;5114354;27;20261;-54
2022/04/28 01:45:53;;;;;;;28.98;20.67;;;;;;;6.70;100.00;97126.38;5106328;28;20067;-55
2022/04/28 01:48:22;;;;;;;30.38;20.98;;;;;;;6.66;100.00;97123.97;5103169;28;20755;-53
2022/04/28 01:56:20;;;;;;;32.75;23.00;;;;;;;6.72;100.00;97127.97;5125354;28;20131;-57
2022/04/28 01:58:48;;;;;;;37.47;27.15;;;;;;;6.80;100.00;97138.75;5126721;27;20070;-56
2022/04/28 02:01:16;;;;;;;35.25;23.17;;;;;;;6.99;100.00;97134.91;5125432;27;20074;-54
2022/04/28 02:03:45;;;;;;;33.53;23.83;;;;;;;7.00;100.00;97137.41;5126490;28;20074;-56
2022/04/28 02:06:13;;;;;;;33.20;24.17;;;;;;;7.10;100.00;97135.81;5126293;28;20086;-53
2022/04/28 02:08:44;;;;;;;37.63;23.85;;;;;;;6.98;100.00;97138.44;5127422;27;20082;-56
2022/04/28 02:11:12;;;;;;;;;;;;;;;7.03;100.00;97138.97;5124794;28;20082;-55
2022/04/28 02:13:40;;;;;;;31.95;22.52;;;;;;;7.13;100.00;97122.50;5124754;28;19947;-54
2022/04/28 02:16:10;;;;;;;33.53;22.52;;;;;;;7.14;100.00;97133.81;5127024;27;20512;-56
2022/04/28 02:18:39;;;;;;;34.90;23.55;;;;;;;7.13;100.00;97130.38;5126611;27;20035;-56
2022/04/28 02:21:07;;;;;;;35.47;22.95;;;;;;;7.09;100.00;97134.16;5121505;28;20090;-54
2022/04/28 02:23:35;;;;;;;31.77;22.67;;;;;;;7.02;100.00;97129.41;5122791;27;20090;-55
2022/04/28 02:26:05;;;;;;;28.65;21.42;;;;;;;7.07;100.00;97132.56;5128005;27;20063;-51
2022/04/28 02:28:33;;;;;;;28.25;19.52;;;;;;;7.00;100.00;97134.78;5110902;28;20066;-54
2022/04/28 02:31:01;;;;;;;24.58;17.88;;;;;;;6.73;100.00;97128.81;5124244;27;20074;-53
2022/04/28 02:33:30;;;;;;;27.98;18.08;;;;;;;6.58;100.00;97128.91;5122912;27;20078;-56
2022/04/28 02:35:58;;;;;;;28.33;19.15;;;;;;;6.51;100.00;97127.63;5124423;27;20083;-55
2022/04/28 02:38:26;;;;;;;30.33;20.45;;;;;;;6.57;100.00;97137.72;5102997;28;20525;-54
2022/04/28 02:40:55;;;;;;;30.00;20.88;;;;;;;6.50;100.00;97135.59;5103505;28;20438;-55
2022/04/28 02:43:24;;;;;;;30.45;22.08;;;;;;;6.70;100.00;97135.09;5105946;28;20066;-52
2022/04/28 02:45:53;;;;;;;31.83;22.40;;;;;;;6.70;100.00;97140.31;5108318;27;20451;-54
2022/04/28 02:48:22;;;;;;;31.63;22.08;;;;;;;6.67;100.00;97140.53;5112258;27;20093;-50
2022/04/28 02:50:50;;;;;;;34.80;23.35;;;;;;;6.87;100.00;97134.78;5131220;27;20087;-57
2022/04/28 02:53:19;;;;;;;31.85;22.35;;;;;;;6.74;100.00;97143.56;5112774;27;20066;-53
2022/04/28 02:55:47;;;;;;;33.33;23.30;;;;;;;6.74;100.00;97143.56;5122245;27;20074;-55
2022/04/28 02:58:15;;;;;;;31.60;21.77;;;;;;;6.81;100.00;97145.69;5127269;27;20071;-57
2022/04/28 03:00:45;;;;;;;32.05;20.25;;;;;;;6.52;100.00;97137.16;5122481;27;20059;-52
2022/04/28 03:03:13;;;;;;;25.05;18.80;;;;;;;6.52;100.00;97142.41;5128606;27;20071;-52
2022/04/28 03:11:16;;;;;;;75.82;15.60;;;;;;;6.53;100.00;97140.63;5111169;27;20074;-48
2022/04/28 03:13:44;;;;;;;56.05;15.35;;;;;;;6.42;100.00;97147.41;5108122;27;20100;-54
2022/04/28 03:16:14;;;;;;;37.45;15.20;;;;;;;6.28;100.00;97146.66;5108823;28;20071;-57
2022/04/28 03:18:44;;;;;;;56.17;13.93;;;;;;;6.17;100.00;97145.59;5117260;27;20067;-54
2022/04/28 03:21:13;;;;;;;35.08;13.98;;;;;;;5.65;100.00;97148.09;5125803;27;20463;-55
2022/04/28 03:23:41;;;;;;;16.58;13.60;;;;;;;5.47;100.00;97148.31;5102777;27;20571;-50
2022/04/28 03:26:11;;;;;;;16.67;13.32;;;;;;;5.46;100.00;97151.84;5104825;27;20493;-54
2022/04/28 03:28:40;;;;;;;17.17;13.52;;;;;;;5.51;100.00;97155.97;5122694;27;20488;-58
2022/04/28 03:31:08;;;;;;;27.38;14.25;;;;;;;5.75;100.00;97156.16;5126974;27;20071;-57
2022/04/28 03:33:38;;;;;;;34.65;13.38;;;;;;;5.92;100.00;97154.22;5123169;27;20122;-55
2022/04/28 03:36:50;;;;;;;24.58;14.40;;;;;;;5.88;100.00;97155.31;5127656;27;20457;-57
2022/04/28 03:38:55;;;;;;;16.13;13.20;;;;;;;5.77;100.00;97164.78;5126026;27;20078;-53
2022/04/28 03:41:24;;;;;;;17.08;14.00;;;;;;;5.70;100.00;97159.91;5125212;27;20059;-55
2022/04/28 03:43:52;;;;;;;15.50;12.57;;;;;;;5.66;100.00;97155.81;5124936;27;20070;-51
2022/04/28 03:46:20;;;;;;;13.18;11.77;;;;;;;5.36;100.00;97162.97;5124156;27;20067;-59
2022/04/28 03:48:50;;;;;;;12.80;11.48;;;;;;;5.37;100.00;97177.75;5125137;27;20070;-55
2022/04/28 03:51:18;;;;;;;14.80;12.40;;;;;;;5.32;100.00;97171.94;5124977;27;20122;-53
2022/04/28 03:53:47;;;;;;;14.50;11.85;;;;;;;5.24;100.00;97178.50;5124181;27;20078;-52
2022/04/28 03:56:15;;;;;;;14.23;11.93;;;;;;;5.26;100.00;97173.16;5124054;27;20070;-51
2022/04/28 03:58:43;;;;;;;14.75;12.05;;;;;;;4.87;100.00;97174.66;5125359;27;20082;-53
2022/04/28 04:01:12;;;;;;;14.57;12.90;;;;;;;5.04;100.00;97178.88;5114471;27;20063;-55
2022/04/28 04:03:40;;;;;;;14.43;12.90;;;;;;;5.09;100.00;97171.56;5102558;27;20466;-58
2022/04/28 04:06:10;;;;;;;14.32;12.60;;;;;;;4.65;100.00;97185.53;5100556;27;20075;-56
2022/04/28 04:08:38;;;;;;;14.52;11.80;;;;;;;4.99;100.00;97186.16;5099815;27;20565;-56
2022/04/28 04:11:07;;;;;;;12.80;11.50;;;;;;;5.09;100.00;97194.25;5121131;27;20070;-53
2022/04/28 04:13:36;;;;;;;13.75;12.30;;;;;;;5.08;100.00;97188.19;5125794;27;20078;-56
2022/04/28 04:16:05;;;;;;;14.20;12.65;;;;;;;4.82;100.00;97191.53;5121831;27;20067;-51
2022/04/28 04:18:33;;;;;;;13.27;11.88;;;;;;;5.05;100.00;97191.00;5110348;27;20038;-50
2022/04/28 04:21:02;;;;;;;13.57;12.20;;;;;;;4.80;100.00;97209.06;5110307;28;20079;-55
2022/04/28 04:23:32;;;;;;;14.48;12.00;;;;;;;4.83;100.00;97201.06;5110406;28;20090;-53
2022/04/28 04:26:01;;;;;;;12.80;11.50;;;;;;;5.06;100.00;97190.06;5110412;28;20497;-56
2022/04/28 04:28:30;;;;;;;13.43;11.90;;;;;;;5.26;100.00;97201.09;5108594;28;20071;-57
2022/04/28 04:33:44;;;;;;;13.77;12.35;;;;;;;5.69;100.00;97197.50;5116369;27;20074;-51
2022/04/28 04:36:12;;;;;;;14.85;12.50;;;;;;;5.73;100.00;97200.75;5130885;27;20086;-55
2022/04/28 04:38:42;;;;;;;13.30;11.98;;;;;;;5.69;100.00;97200.13;5131238;27;20066;-52
2022/04/28 04:41:11;;;;;;;13.55;12.15;;;;;;;5.60;100.00;97199.84;5128439;27;20073;-54
2022/04/28 04:43:39;;;;;;;13.85;11.48;;;;;;;5.30;100.00;97200.81;5114714;27;20050;-50
2022/04/28 04:46:08;;;;;;;13.32;11.57;;;;;;;5.71;100.00;97205.25;5110112;28;20083;-53
2022/04/28 04:48:38;;;;;;;13.30;11.90;;;;;;;5.84;100.00;97213.16;5109702;28;20055;-58
2022/04/28 04:51:06;;;;;;;16.25;14.15;;;;;;;6.03;100.00;97218.97;5110058;28;20504;-56
2022/04/28 04:53:35;;;;;;;16.25;14.55;;;;;;;6.55;100.00;97212.13;5110153;27;20541;-53
2022/04/28 04:56:05;;;;;;;17.40;13.40;;;;;;;7.13;100.00;97210.84;5125812;27;20070;-53
2022/04/28 04:58:33;;;;;;;15.32;13.57;;;;;;;7.52;100.00;97207.22;5112302;27;20066;-51
2022/04/28 05:01:02;;;;;;;14.90;13.10;;;;;;;7.64;100.00;97213.44;5109623;28;20075;-55
2022/04/28 05:03:30;;;;;;;14.13;12.45;;;;;;;8.58;100.00;97215.41;5107235;27;20071;-56
2022/04/28 05:05:58;;;;;;;15.60;12.50;;;;;;;9.08;100.00;97207.28;5109963;28;20086;-54
2022/04/28 05:08:27;;;;;;;14.35;11.98;;;;;;;9.66;100.00;97208.06;5115160;27;20125;-54
2022/04/28 05:10:55;;;;;;;16.73;13.20;;;;;;;9.47;100.00;97213.94;5102883;28;20067;-55
2022/04/28 05:13:25;;;;;;;12.00;10.80;;;;;;;10.34;100.00;97214.09;5108500;28;20082;-55
2022/04/28 05:15:53;;;;;;;12.70;11.20;;;;;;;9.82;100.00;97213.81;5118494;27;20063;-52
2022/04/28 05:18:22;;;;;;;11.43;10.38;;;;;;;10.49;100.00;97207.56;5109044;28;20091;-55
2022/04/28 05:20:50;;;;;;;10.55;9.55;;;;;;;10.97;100.00;97208.91;5109924;28;20047;-55
2022/04/28 05:23:20;;;;;;;10.68;9.45;;;;;;;10.90;100.00;97216.50;5108751;28;20066;-53
2022/04/28 05:25:48;;;;;;;9.90;8.85;;;;;;;11.25;100.00;97215.31;5109186;28;20066;-55
2022/04/28 05:28:16;;;;;;;10.35;8.25;;;;;;;11.05;100.00;97222.31;5113795;27;20090;-57
2022/04/28 05:30:47;;;;;;;12.85;7.38;;;;;;;11.29;100.00;97220.22;5111755;27;20066;-59
2022/04/28 05:33:15;;;;;;;8.48;7.60;;;;;;;11.09;100.00;97215.81;5109060;28;20462;-58
2022/04/28 05:35:43;;;;;;;8.75;7.90;;;;;;;10.95;100.00;97226.69;5109777;28;20529;-55
2022/04/28 05:38:12;;;;;;;8.85;8.05;;;;;;;10.84;100.00;97228.41;5107069;28;20074;-53
2022/04/28 05:40:40;;;;;;;12.15;8.50;;;;;;;10.72;100.00;97234.69;5108589;28;20071;-54
2022/04/28 05:45:58;;;;;;;11.15;9.80;;;;;;;10.39;100.00;97239.13;5106815;28;20470;-58
2022/04/28 05:48:26;;;;;;;11.88;10.57;;;;;;;10.23;100.00;97244.75;5108769;28;20517;-57
2022/04/28 05:50:54;;;;;;;11.63;10.45;;;;;;;10.14;100.00;97237.59;5109094;28;20087;-52
2022/04/28 05:53:23;;;;;;;11.63;10.48;;;;;;;10.06;100.00;97250.53;5128652;27;20071;-56
2022/04/28 05:55:51;;;;;;;11.98;10.77;;;;;;;10.07;100.00;97246.94;5129592;27;20063;-56
2022/04/28 05:58:19;;;;;;;14.90;13.02;;;;;;;10.12;100.00;97244.78;5130945;27;20540;-53
2022/04/28 06:00:47;;;;;;;15.98;13.05;;;;;;;9.80;100.00;97247.31;5129308;27;20055;-53
2022/04/28 06:03:17;;;;;;;26.15;19.08;;;;;;;9.56;100.00;97257.97;5128958;28;20082;-51
2022/04/28 06:05:45;;;;;;;25.60;19.70;;;;;;;9.81;100.00;97264.81;5129777;28;20047;-53
2022/04/28 06:08:14;;;;;;;25.88;20.00;;;;;;;10.06;100.00;97268.16;5127075;28;20522;-54
2022/04/28 06:10:42;;;;;;;26.05;19.65;;;;;;;9.87;100.00;97266.13;5124292;28;20063;-56
2022/04/28 06:13:10;;;;;;;23.85;19.13;;;;;;;10.40;100.00;97266.34;5128943;27;20059;-52
2022/04/28 06:15:38;;;;;;;23.98;18.80;;;;;;;10.31;100.00;97265.25;5128455;28;20305;-56
2022/04/28 06:18:07;;;;;;;24.35;18.45;;;;;;;10.41;100.00;97268.00;5129816;27;20085;-52
2022/04/28 06:20:37;;;;;;;24.27;18.42;;;;;;;11.09;100.00;97266.78;5133444;27;20093;-56
2022/04/28 06:23:05;;;;;;;23.55;18.90;;;;;;;10.81;100.00;97264.78;5132798;27;20058;-55
2022/04/28 06:25:34;;;;;;;24.60;19.25;;;;;;;11.14;100.00;97276.97;5132840;27;20598;-49
2022/04/28 06:28:02;;;;;;;25.45;18.75;;;;;;;10.77;100.00;97268.59;5127309;27;20067;-59
2022/04/28 06:30:30;;;;;;;25.17;18.15;;;;;;;10.95;100.00;97272.38;5132541;27;20062;-54
2022/04/28 06:32:59;;;;;;;25.05;19.60;;;;;;;10.99;100.00;97276.44;5132709;27;20086;-55
2022/04/28 06:35:27;;;;;;;24.65;18.52;;;;;;;11.12;100.00;97278.91;5123405;27;21663;-54
2022/04/28 06:37:57;;;;;;;24.60;18.42;;;;;;;11.12;100.00;97281.53;5116671;27;20504;-56
2022/04/28 06:40:25;;;;;;;25.05;18.40;;;;;;;11.46;100.00;97278.69;5117961;27;20463;-59
2022/04/28 06:42:54;;;;;;;23.33;18.38;;;;;;;11.33;100.00;97284.19;5126518;27;20409;-58
2022/04/28 06:45:22;;;;;;;21.83;18.17;;;;;;;11.59;100.00;97284.59;5129944;27;20062;-56
2022/04/28 06:47:50;;;;;;;23.05;16.77;;;;;;;11.69;100.00;97279.38;5133568;27;20074;-58
2022/04/28 06:50:18;;;;;;;20.77;17.02;;;;;;;11.76;100.00;97283.16;5130746;27;20063;-50
2022/04/28 06:52:47;;;;;;;21.17;16.92;;;;;;;11.82;100.00;97283.47;5132555;27;20086;-50
2022/04/28 06:55:16;;;;;;;23.27;17.48;;;;;;;11.95;100.00;97283.31;5120669;27;20075;-54
2022/04/28 06:57:45;;;;;;;17.92;16.02;;;;;;;12.20;100.00;97282.00;5124565;27;20078;-56
2022/04/28 07:00:14;;;;;;;20.25;16.90;;;;;;;12.58;100.00;97281.25;5124858;27;20520;-56
2022/04/28 07:02:43;;;;;;;21.67;16.38;;;;;;;12.93;100.00;97287.00;5133164;27;20203;-50
2022/04/28 07:05:11;;;;;;;19.75;16.15;;;;;;;12.83;100.00;97285.19;5126230;27;20077;-54
2022/04/28 07:07:40;;;;;;;17.77;14.80;;;;;;;12.68;100.00;97281.25;5116234;27;20059;-55
2022/04/28 07:10:09;;;;;;;19.23;15.73;;;;;;;12.64;100.00;97290.44;5117053;27;20625;-54
2022/04/28 07:12:41;;;;;;;18.75;15.70;;;;;;;12.61;100.00;97289.88;5132301;27;20082;-53
2022/04/28 07:15:10;;;;;;;18.63;15.55;;;;;;;13.03;100.00;97288.66;5132338;27;20102;-52
2022/04/28 07:17:38;;;;;;;19.23;16.40;;;;;;;12.90;100.00;97287.25;5132781;27;20488;-53
2022/04/28 07:20:08;;;;;;;19.42;15.40;;;;;;;12.85;100.00;97289.50;5131907;27;20108;-51
2022/04/28 07:22:36;;;;;;;18.00;14.68;;;;;;;13.70;100.00;97283.47;5135372;27;20063;-54
2022/04/28 07:25:05;;;;;;;20.23;16.40;;;;;;;13.74;100.00;97288.31;5131301;27;20062;-53
2022/04/28 07:27:33;;;;;;;17.83;14.55;;;;;;;13.56;100.00;97298.00;5120822;27;20062;-54
2022/04/28 07:30:04;;;;;;;20.58;16.20;;;;;;;13.61;100.00;97303.69;5123172;27;20075;-54
2022/04/28 07:32:33;;;;;;;20.85;15.60;;;;;;;13.91;100.00;97300.00;5125561;27;20083;-50
2022/04/28 07:35:01;;;;;;;17.95;15.02;;;;;;;14.11;100.00;97305.22;5128517;27;20058;-51
2022/04/28 07:37:30;;;;;;;18.95;16.48;;;;;;;13.88;100.00;97296.78;5131564;27;20171;-53
2022/04/28 07:39:58;;;;;;;20.20;14.93;;;;;;;14.16;100.00;97298.50;5131631;27;20086;-53
2022/04/28 07:42:26;;;;;;;19.77;14.30;;;;;;;14.00;100.00;97301.78;5131593;27;20066;-57
2022/04/28 07:44:54;;;;;;;17.08;13.70;;;;;;;13.95;100.00;97301.38;5132035;27;20074;-56
2022/04/28 07:47:26;;;;;;;16.45;13.18;;;;;;;14.35;100.00;97307.34;5131370;27;20074;-56
2022/04/28 07:49:55;;;;;;;15.35;13.27;;;;;;;14.44;100.00;97307.28;5131324;27;20067;-56
2022/04/28 07:52:23;;;;;;;18.42;14.40;;;;;;;14.13;100.00;97306.75;5129582;27;20119;-52
2022/04/28 07:54:51;;;;;;;16.63;13.68;;;;;;;14.57;100.00;97306.97;5131255;27;20062;-56
2022/04/28 07:57:22;;;;;;;18.15;12.88;;;;;;;14.72;100.00;97313.44;5131425;27;20520;-54
2022/04/28 07:59:50;;;;;;;14.00;11.85;;;;;;;14.91;100.00;97309.84;5126664;27;20074;-52
2022/04/28 08:02:18;;;;;;;14.68;12.15;;;;;;;15.03;100.00;97305.13;5131135;27;20453;-52
2022/04/28 08:04:48;;;;;;;14.88;12.82;;;;;;;14.58;100.00;97299.84;5127999;27;20063;-50
2022/04/28 08:07:16;;;;;;;14.77;12.20;;;;;;;14.94;100.00;97308.72;5128917;27;20067;-49
2022/04/28 08:09:45;;;;;;;16.17;13.07;;;;;;;14.95;100.00;97305.88;5130966;27;20067;-53
2022/04/28 08:12:13;;;;;;;15.82;13.18;;;;;;;15.09;100.00;97306.34;5131170;27;20466;-53
2022/04/28 08:15:01;;;;;;;15.23;13.13;;;;;;;14.99;100.00;97311.72;5130782;27;20083;-49
2022/04/28 08:17:29;;;;;;;13.18;11.60;;;;;;;15.06;100.00;97306.66;5131762;27;20098;-56
2022/04/28 08:19:59;;;;;;;15.50;12.95;;;;;;;15.24;100.00;97310.13;5130453;27;20066;-54
2022/04/28 08:22:27;;;;;;;13.20;10.73;;;;;;;14.96;100.00;97304.06;5130958;27;20066;-52
2022/04/28 08:24:55;;;;;;;14.55;11.50;;;;;;;15.16;100.00;97302.91;5131081;27;20066;-54
2022/04/28 08:27:25;;;;;;;15.88;12.98;;;;;;;15.43;100.00;97314.44;5129593;27;20070;-54
2022/04/28 08:29:53;;;;;;;15.57;11.70;;;;;;;15.73;100.00;97310.56;5127675;27;20621;-56
2022/04/28 08:32:22;;;;;;;14.15;10.77;;;;;;;15.95;100.00;97313.69;5130229;27;20774;-53
2022/04/28 08:34:50;;;;;;;17.38;11.93;;;;;;;16.14;100.00;97313.47;5126602;27;20066;-56
2022/04/28 08:37:19;;;;;;;14.60;12.52;;;;;;;15.66;100.00;97315.66;5124857;27;20559;-56
2022/04/28 08:39:48;;;;;;;14.48;11.32;;;;;;;15.67;100.00;97324.47;5130559;27;20477;-56
2022/04/28 08:42:16;;;;;;;13.88;12.27;;;;;;;15.85;100.00;97313.78;5129868;27;20074;-51
2022/04/28 08:44:45;;;;;;;15.32;13.18;;;;;;;16.25;100.00;97323.00;5131263;27;20085;-57
2022/04/28 08:47:14;;;;;;;13.80;12.30;;;;;;;15.85;100.00;97327.06;5130570;27;20066;-58
2022/04/28 08:49:43;;;;;;;14.25;12.23;;;;;;;16.35;100.00;97316.56;5130095;27;20088;-58
2022/04/28 08:52:13;;;;;;;13.98;12.07;;;;;;;16.16;100.00;97319.44;5130294;27;20161;-56
2022/04/28 08:54:44;;;;;;;12.90;10.63;;;;;;;15.84;100.00;97317.44;5130189;27;20061;-58
2022/04/28 08:57:14;;;;;;;12.88;10.20;;;;;;;15.98;100.00;97318.69;5130250;27;20224;-56
2022/04/28 08:59:43;;;;;;;10.48;9.02;;;;;;;16.02;99.92;97320.03;5123819;27;20054;-58
2022/04/28 09:02:12;;;;;;;10.50;9.38;;;;;;;16.21;95.22;97317.16;5127332;27;20067;-54
2022/04/28 09:04:41;;;;;;;13.23;10.50;;;;;;;15.96;91.23;97321.50;5130036;27;20065;-52
2022/04/28 09:07:10;;;;;;;11.77;9.55;;;;;;;16.37;84.79;97327.88;5126328;27;20070;-54
2022/04/28 09:09:38;;;;;;;11.70;10.43;;;;;;;16.07;86.30;97320.38;5129856;27;20059;-56
2022/04/28 09:12:09;;;;;;;11.80;9.30;;;;;;;16.52;83.46;97324.63;5130009;27;20512;-54
2022/04/28 09:14:42;;;;;;;10.82;9.43;;;;;;;16.94;83.30;97323.78;5128219;27;20109;-53
2022/04/28 09:17:11;;;;;;;10.13;8.85;;;;;;;16.79;64.86;97321.75;5111245;27;20489;-55
2022/04/28 09:19:40;;;;;;;14.00;9.85;;;;;;;17.19;72.05;97325.47;5107714;28;20067;-56
2022/04/28 09:22:12;;;;;;;12.65;9.90;;;;;;;17.10;74.58;97318.44;5108909;28;20082;-53
2022/04/28 09:24:43;;;;;;;10.32;8.75;;;;;;;16.69;67.73;97315.69;5108706;28;20063;-54
2022/04/28 09:27:14;;;;;;;12.48;9.45;;;;;;;17.30;79.27;97322.47;5101803;28;20845;-58
2022/04/28 09:29:47;;;;;;;10.55;9.05;;;;;;;17.02;75.95;97321.94;5105718;28;20075;-52
2022/04/28 09:32:16;;;;;;;12.18;10.45;;;;;;;16.70;73.84;97321.84;5128363;27;20063;-59
2022/04/28 09:35:10;;;;;;;12.27;9.75;;;;;;;16.48;74.04;97320.59;5111970;27;20062;-53
2022/04/28 09:37:39;;;;;;;9.93;8.80;;;;;;;16.86;65.72;97329.91;5102620;28;20087;-57
2022/04/28 09:42:56;;;;;;;9.55;8.27;;;;;;;17.30;62.23;97322.47;5106286;28;20063;-53
2022/04/28 09:45:25;;;;;;;10.63;8.98;;;;;;;17.90;62.49;97315.16;5112544;27;20458;-53
2022/04/28 09:48:05;;;;;;;9.73;8.38;;;;;;;17.55;61.39;97326.00;5129990;27;20090;-53
2022/04/28 09:50:33;;;;;;;11.47;9.40;;;;;;;16.99;58.49;97324.94;5108436;28;20482;-59
2022/04/28 09:53:05;;;;;;;9.85;8.82;;;;;;;17.11;61.43;97325.47;5108249;28;20501;-55
2022/04/28 09:55:34;;;;;;;10.57;8.23;;;;;;;16.95;57.46;97325.44;5106391;28;20485;-55
2022/04/28 09:58:05;;;;;;;11.35;9.45;;;;;;;16.93;60.62;97320.28;5103595;28;20068;-58
2022/04/28 10:00:34;;;;;;;9.88;8.88;;;;;;;16.55;61.67;97317.13;5103543;28;20162;-54
2022/04/28 10:03:03;;;;;;;10.75;8.50;;;;;;;17.39;60.32;97317.16;5107763;28;20094;-50
2022/04/28 10:05:33;;;;;;;10.43;8.82;;;;;;;16.84;55.98;97319.41;5108330;28;20087;-59
2022/04/28 10:08:02;;;;;;;9.32;8.20;;;;;;;17.24;52.72;97324.97;5105170;28;20071;-57
2022/04/28 10:10:31;;;;;;;9.95;8.93;;;;;;;17.20;53.50;97327.13;5099060;28;20067;-56
2022/04/28 10:13:00;;;;;;;12.95;9.10;;;;;;;17.36;56.43;97318.31;5108770;28;20059;-52
2022/04/28 10:15:33;;;;;;;12.43;9.93;;;;;;;17.46;54.50;97320.84;5112978;28;20059;-57
2022/04/28 10:18:05;;;;;;;9.73;8.73;;;;;;;17.21;54.01;97312.00;5128039;28;20078;-52
2022/04/28 10:20:36;;;;;;;10.88;9.77;;;;;;;18.05;55.67;97312.63;5105652;28;20079;-56
2022/04/28 10:32:22;;;;;;;9.98;8.45;;;;;;;17.94;50.12;97311.16;5108124;28;20071;-55
2022/04/28 10:35:03;;;;;;;8.73;7.60;;;;;;;17.50;48.36;97317.66;5128648;27;20071;-52
2022/04/28 10:37:32;;;;;;;8.35;7.30;;;;;;;17.40;47.75;97310.81;5115992;28;20138;-50
2022/04/28 10:40:01;;;;;;;8.43;6.57;;;;;;;18.22;44.17;97319.59;5106082;27;20079;-52
2022/04/28 10:42:55;;;;;;;9.77;7.60;;;;;;;18.31;45.26;97309.72;5124726;27;20062;-57
2022/04/28 10:45:25;;;;;;;9.40;8.35;;;;;;;18.48;46.79;97303.31;5106015;28;20078;-52
2022/04/28 10:48:29;;;;;;;8.55;7.68;;;;;;;18.62;42.49;97313.25;5109297;28;20083;-59
2022/04/28 10:51:11;;;;;;;9.70;8.70;;;;;;;18.84;45.77;97310.84;5127236;28;20372;-53
2022/04/28 10:54:00;;;;;;;8.02;6.32;;;;;;;19.23;41.15;97310.75;5126791;28;20071;-55
2022/04/28 10:56:30;;;;;;;7.85;6.63;;;;;;;19.31;39.82;97313.38;5101906;28;20449;-54
2022/04/28 10:59:32;;;;;;;7.33;6.63;;;;;;;19.67;38.48;97316.28;5098422;28;20098;-54
2022/04/28 11:02:32;;;;;;;10.93;6.85;;;;;;;20.00;39.10;97313.31;5108261;28;20487;-50
2022/04/28 11:05:30;;;;;;;9.00;7.07;;;;;;;19.30;39.94;97317.03;5100098;28;20543;-55
2022/04/28 11:08:00;;;;;;;8.70;7.35;;;;;;;20.50;40.58;97313.56;5124714;27;20063;-55
2022/04/28 11:10:29;;;;;;;9.20;7.00;;;;;;;19.07;41.16;97313.56;5119817;27;20081;-51
2022/04/28 11:13:08;;;;;;;8.50;7.35;;;;;;;19.44;41.21;97320.78;5110969;28;20075;-54
2022/04/28 11:15:37;;;;;;;7.18;6.43;;;;;;;19.59;38.92;97332.38;5106320;28;20063;-55
2022/04/28 11:18:06;;;;;;;8.27;7.38;;;;;;;19.67;39.57;97328.81;5102518;27;20083;-56
2022/04/28 11:20:39;;;;;;;8.32;7.20;;;;;;;20.04;40.50;97319.13;5112083;28;20639;-56
2022/04/28 11:23:07;;;;;;;7.93;7.13;;;;;;;19.83;38.99;97328.69;5111270;28;20078;-52
2022/04/28 11:25:35;;;;;;;7.65;6.88;;;;;;;18.63;40.16;97330.94;5111607;28;20082;-57
2022/04/28 11:28:05;;;;;;;9.50;7.72;;;;;;;19.88;38.34;97322.78;5109827;28;20458;-53
2022/04/28 11:30:33;;;;;;;7.72;6.93;;;;;;;18.69;41.08;97327.59;5110804;28;20067;-54
2022/04/28 11:33:02;;;;;;;7.50;6.35;;;;;;;18.69;40.91;97319.56;5111459;28;20869;-56
2022/04/28 11:35:31;;;;;;;7.68;6.78;;;;;;;18.73;41.80;97330.78;5112202;27;20075;-55
2022/04/28 11:38:01;;;;;;;9.70;7.40;;;;;;;19.61;40.39;97322.34;5111632;28;20117;-56
2022/04/28 11:40:30;;;;;;;9.68;7.35;;;;;;;19.47;42.48;97322.28;5111513;28;20063;-57
2022/04/28 11:42:59;;;;;;;8.57;7.15;;;;;;;18.77;40.69;97328.56;5111374;28;20077;-54
2022/04/28 11:45:29;;;;;;;9.30;7.47;;;;;;;18.95;44.16;97323.78;5114750;27;20568;-57
2022/04/28 11:47:59;;;;;;;9.55;7.38;;;;;;;18.71;45.56;97322.91;5127150;27;20074;-53
2022/04/28 11:50:30;;;;;;;9.23;7.45;;;;;;;18.85;45.64;97316.00;5130764;27;20077;-56
2022/04/28 11:53:03;;;;;;;8.15;7.35;;;;;;;18.31;46.80;97325.75;5131719;27;20063;-56
2022/04/28 11:55:34;;;;;;;10.00;7.43;;;;;;;18.80;45.19;97320.22;5131819;27;20066;-55
2022/04/28 11:58:03;;;;;;;8.38;7.10;;;;;;;18.80;46.68;97322.88;5119803;27;20071;-59
2022/04/28 12:00:37;;;;;;;8.30;7.30;;;;;;;19.30;44.44;97321.56;5124740;27;20058;-54
2022/04/28 12:03:06;;;;;;;8.55;6.85;;;;;;;18.91;42.90;97320.63;5131721;27;20086;-56